sensor_id;sensor_type;location;lat;lon;timestamp;pressure;altitude;pressure_sealevel;temperature;humidity
64713;BME280;51140;45.340;5.980;2023-07-22T00:00:15;97845.88;;;22.10;51.02
64713;BME280;51140;45.340;5.980;2023-07-22T00:02:43;97877.00;;;22.32;49.92
64713;BME280;51140;45.340;5.980;2023-07-22T00:05:09;97885.78;;;22.29;49.75
64713;BME280;51140;45.340;5.980;2023-07-22T00:07:37;97894.94;;;21.96;49.02
64713;BME280;51140;45.340;5.980;2023-07-22T00:10:03;97895.44;;;22.14;48.98
64713;BME280;51140;45.340;5.980;2023-07-22T00:12:29;97872.59;;;22.27;49.79
64713;BME280;51140;45.340;5.980;2023-07-22T00:14:54;97846.00;;;22.13;51.66
64713;BME280;51140;45.340;5.980;2023-07-22T00:17:19;97783.19;;;22.04;53.36
64713;BME280;51140;45.340;5.980;2023-07-22T00:19:47;97763.06;;;21.74;54.73
64713;BME280;51140;45.340;5.980;2023-07-22T00:22:13;97809.09;;;22.05;52.46
64713;BME280;51140;45.340;5.980;2023-07-22T00:24:40;97847.63;;;22.18;51.43
64713;BME280;51140;45.340;5.980;2023-07-22T00:27:05;97873.72;;;22.26;50.38
64713;BME280;51140;45.340;5.980;2023-07-22T00:29:34;97847.72;;;22.06;51.15
64713;BME280;51140;45.340;5.980;2023-07-22T00:31:59;97856.47;;;21.87;50.62
64713;BME280;51140;45.340;5.980;2023-07-22T00:34:24;97799.31;;;21.45;52.92
64713;BME280;51140;45.340;5.980;2023-07-22T00:36:50;97788.53;;;21.33;52.96
64713;BME280;51140;45.340;5.980;2023-07-22T00:39:15;97770.31;;;21.30;53.95
64713;BME280;51140;45.340;5.980;2023-07-22T00:41:41;97788.97;;;21.35;53.10
64713;BME280;51140;45.340;5.980;2023-07-22T00:44:10;97761.84;;;21.44;54.23
64713;BME280;51140;45.340;5.980;2023-07-22T00:46:35;97783.69;;;21.39;52.78
64713;BME280;51140;45.340;5.980;2023-07-22T00:49:01;97763.63;;;21.12;54.60
64713;BME280;51140;45.340;5.980;2023-07-22T00:51:26;97750.81;;;21.09;55.03
64713;BME280;51140;45.340;5.980;2023-07-22T00:53:52;97766.41;;;21.03;54.21
64713;BME280;51140;45.340;5.980;2023-07-22T00:56:17;97800.72;;;21.15;53.22
64713;BME280;51140;45.340;5.980;2023-07-22T00:58:42;97798.56;;;21.21;53.33
64713;BME280;51140;45.340;5.980;2023-07-22T01:01:08;97788.47;;;21.18;53.81
64713;BME280;51140;45.340;5.980;2023-07-22T01:03:33;97807.94;;;21.23;52.92
64713;BME280;51140;45.340;5.980;2023-07-22T01:05:59;97789.84;;;20.99;53.85
64713;BME280;51140;45.340;5.980;2023-07-22T01:08:26;97787.03;;;21.20;53.49
64713;BME280;51140;45.340;5.980;2023-07-22T01:10:51;97794.78;;;20.97;53.76
64713;BME280;51140;45.340;5.980;2023-07-22T01:13:16;97767.13;;;21.13;54.74
64713;BME280;51140;45.340;5.980;2023-07-22T01:15:42;97742.50;;;20.90;55.77
64713;BME280;51140;45.340;5.980;2023-07-22T01:18:08;97750.84;;;20.73;55.01
64713;BME280;51140;45.340;5.980;2023-07-22T01:20:34;97783.66;;;20.99;54.04
64713;BME280;51140;45.340;5.980;2023-07-22T01:23:01;97787.34;;;21.06;53.91
64713;BME280;51140;45.340;5.980;2023-07-22T01:25:26;97782.38;;;21.21;54.84
64713;BME280;51140;45.340;5.980;2023-07-22T01:27:53;97806.59;;;20.93;53.83
64713;BME280;51140;45.340;5.980;2023-07-22T01:30:18;97776.59;;;20.94;55.31
64713;BME280;51140;45.340;5.980;2023-07-22T01:32:47;97763.91;;;20.83;55.66
64713;BME280;51140;45.340;5.980;2023-07-22T01:35:12;97760.09;;;20.35;55.67
64713;BME280;51140;45.340;5.980;2023-07-22T01:37:38;97761.44;;;20.41;55.63
64713;BME280;51140;45.340;5.980;2023-07-22T01:40:04;97771.44;;;20.53;56.52
64713;BME280;51140;45.340;5.980;2023-07-22T01:42:42;97801.78;;;20.50;55.40
64713;BME280;51140;45.340;5.980;2023-07-22T01:45:08;97811.31;;;20.47;55.64
64713;BME280;51140;45.340;5.980;2023-07-22T01:47:38;97831.09;;;20.51;55.45
64713;BME280;51140;45.340;5.980;2023-07-22T01:50:04;97853.31;;;20.36;57.14
64713;BME280;51140;45.340;5.980;2023-07-22T01:52:31;97989.88;;;20.32;57.05
64713;BME280;51140;45.340;5.980;2023-07-22T01:54:57;98038.84;;;19.93;58.36
64713;BME280;51140;45.340;5.980;2023-07-22T01:57:22;98064.06;;;19.88;57.73
64713;BME280;51140;45.340;5.980;2023-07-22T01:59:47;98049.56;;;20.02;58.26
64713;BME280;51140;45.340;5.980;2023-07-22T02:02:13;98077.09;;;20.07;58.34
64713;BME280;51140;45.340;5.980;2023-07-22T02:04:38;98077.72;;;19.54;59.35
64713;BME280;51140;45.340;5.980;2023-07-22T02:07:04;98080.69;;;19.90;58.81
64713;BME280;51140;45.340;5.980;2023-07-22T02:09:29;98091.22;;;20.04;57.97
64713;BME280;51140;45.340;5.980;2023-07-22T02:11:55;98111.16;;;19.82;58.90
64713;BME280;51140;45.340;5.980;2023-07-22T02:14:20;98130.22;;;19.98;58.59
64713;BME280;51140;45.340;5.980;2023-07-22T02:16:45;98141.38;;;19.50;58.78
64713;BME280;51140;45.340;5.980;2023-07-22T02:19:11;98146.63;;;19.84;58.54
64713;BME280;51140;45.340;5.980;2023-07-22T02:21:36;98138.81;;;19.62;58.71
64713;BME280;51140;45.340;5.980;2023-07-22T02:24:03;98143.06;;;19.72;59.00
64713;BME280;51140;45.340;5.980;2023-07-22T02:26:28;98141.34;;;19.96;57.71
64713;BME280;51140;45.340;5.980;2023-07-22T02:28:54;98146.28;;;19.94;58.34
64713;BME280;51140;45.340;5.980;2023-07-22T02:31:20;98153.88;;;19.92;58.10
64713;BME280;51140;45.340;5.980;2023-07-22T02:33:47;98150.44;;;20.13;57.40
64713;BME280;51140;45.340;5.980;2023-07-22T02:36:12;98151.16;;;20.01;58.16
64713;BME280;51140;45.340;5.980;2023-07-22T02:38:38;98153.41;;;20.28;57.82
64713;BME280;51140;45.340;5.980;2023-07-22T02:41:04;98157.38;;;20.22;57.85
64713;BME280;51140;45.340;5.980;2023-07-22T02:43:32;98154.53;;;20.19;57.64
64713;BME280;51140;45.340;5.980;2023-07-22T02:46:00;98158.03;;;20.19;57.72
64713;BME280;51140;45.340;5.980;2023-07-22T02:48:26;98155.94;;;19.95;58.85
64713;BME280;51140;45.340;5.980;2023-07-22T02:50:51;98163.56;;;19.30;61.06
64713;BME280;51140;45.340;5.980;2023-07-22T02:53:16;98162.25;;;19.62;59.70
64713;BME280;51140;45.340;5.980;2023-07-22T02:55:42;98176.44;;;19.79;59.62
64713;BME280;51140;45.340;5.980;2023-07-22T02:58:07;98177.22;;;19.88;58.43
64713;BME280;51140;45.340;5.980;2023-07-22T03:00:33;98177.88;;;19.77;58.75
64713;BME280;51140;45.340;5.980;2023-07-22T03:02:58;98171.13;;;19.62;59.70
64713;BME280;51140;45.340;5.980;2023-07-22T03:05:27;98182.59;;;19.25;61.00
64713;BME280;51140;45.340;5.980;2023-07-22T03:07:53;98186.88;;;19.26;61.37
64713;BME280;51140;45.340;5.980;2023-07-22T03:10:19;98190.28;;;19.61;59.85
64713;BME280;51140;45.340;5.980;2023-07-22T03:12:44;98192.22;;;19.52;60.01
64713;BME280;51140;45.340;5.980;2023-07-22T03:15:10;98194.25;;;19.63;58.96
64713;BME280;51140;45.340;5.980;2023-07-22T03:17:38;98193.19;;;19.38;61.77
64713;BME280;51140;45.340;5.980;2023-07-22T03:20:05;98201.59;;;19.20;61.70
64713;BME280;51140;45.340;5.980;2023-07-22T03:22:43;98193.19;;;19.04;60.92
64713;BME280;51140;45.340;5.980;2023-07-22T03:25:15;98192.38;;;19.21;61.20
64713;BME280;51140;45.340;5.980;2023-07-22T03:27:42;98209.16;;;19.43;60.50
64713;BME280;51140;45.340;5.980;2023-07-22T03:30:11;98209.81;;;19.49;59.61
64713;BME280;51140;45.340;5.980;2023-07-22T03:32:36;98208.03;;;19.62;59.34
64713;BME280;51140;45.340;5.980;2023-07-22T03:35:02;98216.59;;;19.29;60.95
64713;BME280;51140;45.340;5.980;2023-07-22T03:37:28;98219.28;;;19.38;59.29
64713;BME280;51140;45.340;5.980;2023-07-22T03:39:54;98227.53;;;19.07;60.75
64713;BME280;51140;45.340;5.980;2023-07-22T03:42:19;98236.25;;;19.04;61.50
64713;BME280;51140;45.340;5.980;2023-07-22T03:44:44;98234.81;;;19.58;61.11
64713;BME280;51140;45.340;5.980;2023-07-22T03:47:10;98238.53;;;19.91;60.21
64713;BME280;51140;45.340;5.980;2023-07-22T03:49:35;98247.44;;;19.75;61.25
64713;BME280;51140;45.340;5.980;2023-07-22T03:52:01;98243.19;;;19.65;61.62
64713;BME280;51140;45.340;5.980;2023-07-22T03:54:26;98250.75;;;19.89;61.78
64713;BME280;51140;45.340;5.980;2023-07-22T03:56:51;98254.75;;;19.74;58.63
64713;BME280;51140;45.340;5.980;2023-07-22T03:59:17;98250.09;;;19.83;59.32
64713;BME280;51140;45.340;5.980;2023-07-22T04:01:42;98251.47;;;19.98;61.08
64713;BME280;51140;45.340;5.980;2023-07-22T04:04:08;98263.81;;;20.08;60.67
64713;BME280;51140;45.340;5.980;2023-07-22T04:06:34;98263.16;;;19.64;61.16
64713;BME280;51140;45.340;5.980;2023-07-22T04:08:59;98260.22;;;19.86;60.02
64713;BME280;51140;45.340;5.980;2023-07-22T04:11:26;98260.38;;;19.98;60.06
64713;BME280;51140;45.340;5.980;2023-07-22T04:13:51;98267.56;;;19.86;60.63
64713;BME280;51140;45.340;5.980;2023-07-22T04:16:17;98277.56;;;19.68;60.63
64713;BME280;51140;45.340;5.980;2023-07-22T04:18:42;98272.34;;;19.29;62.15
64713;BME280;51140;45.340;5.980;2023-07-22T04:21:07;98272.66;;;19.19;61.46
64713;BME280;51140;45.340;5.980;2023-07-22T04:23:33;98277.41;;;19.65;61.91
64713;BME280;51140;45.340;5.980;2023-07-22T04:25:58;98281.19;;;19.72;61.24
64713;BME280;51140;45.340;5.980;2023-07-22T04:28:23;98279.41;;;19.93;61.12
64713;BME280;51140;45.340;5.980;2023-07-22T04:30:57;98287.56;;;20.23;61.09
64713;BME280;51140;45.340;5.980;2023-07-22T04:33:23;98285.78;;;19.80;60.42
64713;BME280;51140;45.340;5.980;2023-07-22T04:35:49;98287.38;;;19.56;62.58
64713;BME280;51140;45.340;5.980;2023-07-22T04:38:14;98280.72;;;19.70;61.10
64713;BME280;51140;45.340;5.980;2023-07-22T04:40:43;98282.50;;;20.13;58.79
64713;BME280;51140;45.340;5.980;2023-07-22T04:43:09;98277.16;;;19.95;59.71
64713;BME280;51140;45.340;5.980;2023-07-22T04:45:34;98285.19;;;20.13;60.49
64713;BME280;51140;45.340;5.980;2023-07-22T04:47:59;98287.72;;;19.54;61.06
64713;BME280;51140;45.340;5.980;2023-07-22T04:50:25;98274.09;;;19.59;63.05
64713;BME280;51140;45.340;5.980;2023-07-22T04:52:50;98271.56;;;19.54;63.25
64713;BME280;51140;45.340;5.980;2023-07-22T04:55:16;98272.19;;;19.68;62.61
64713;BME280;51140;45.340;5.980;2023-07-22T04:57:42;98272.97;;;19.77;62.92
64713;BME280;51140;45.340;5.980;2023-07-22T05:00:09;98276.66;;;20.11;60.48
64713;BME280;51140;45.340;5.980;2023-07-22T05:02:35;98278.22;;;20.29;62.59
64713;BME280;51140;45.340;5.980;2023-07-22T05:05:00;98276.28;;;20.29;61.87
64713;BME280;51140;45.340;5.980;2023-07-22T05:07:26;98274.88;;;20.32;62.67
64713;BME280;51140;45.340;5.980;2023-07-22T05:09:51;98282.69;;;20.08;63.58
64713;BME280;51140;45.340;5.980;2023-07-22T05:12:17;98286.00;;;20.13;64.30
64713;BME280;51140;45.340;5.980;2023-07-22T05:14:45;98292.56;;;20.41;62.59
64713;BME280;51140;45.340;5.980;2023-07-22T05:17:10;98290.66;;;19.87;62.69
64713;BME280;51140;45.340;5.980;2023-07-22T05:19:36;98292.00;;;19.47;64.52
64713;BME280;51140;45.340;5.980;2023-07-22T05:22:01;98289.91;;;19.61;65.39
64713;BME280;51140;45.340;5.980;2023-07-22T05:24:27;98296.41;;;19.68;65.49
64713;BME280;51140;45.340;5.980;2023-07-22T05:26:52;98288.09;;;19.99;64.16
64713;BME280;51140;45.340;5.980;2023-07-22T05:29:17;98295.59;;;19.85;65.21
64713;BME280;51140;45.340;5.980;2023-07-22T05:31:43;98302.56;;;19.94;65.17
64713;BME280;51140;45.340;5.980;2023-07-22T05:34:09;98296.72;;;19.32;65.85
64713;BME280;51140;45.340;5.980;2023-07-22T05:36:34;98294.53;;;19.69;66.07
64713;BME280;51140;45.340;5.980;2023-07-22T05:39:00;98298.66;;;20.30;62.70
64713;BME280;51140;45.340;5.980;2023-07-22T05:41:26;98303.66;;;20.78;63.93
64713;BME280;51140;45.340;5.980;2023-07-22T05:43:51;98303.16;;;21.05;62.93
64713;BME280;51140;45.340;5.980;2023-07-22T05:46:16;98302.94;;;21.19;63.13
64713;BME280;51140;45.340;5.980;2023-07-22T05:48:42;98307.03;;;20.95;62.50
64713;BME280;51140;45.340;5.980;2023-07-22T05:51:07;98311.66;;;20.66;62.42
64713;BME280;51140;45.340;5.980;2023-07-22T05:53:33;98306.34;;;20.48;64.09
64713;BME280;51140;45.340;5.980;2023-07-22T05:55:58;98315.06;;;20.54;63.55
64713;BME280;51140;45.340;5.980;2023-07-22T05:58:24;98309.53;;;19.87;65.98
64713;BME280;51140;45.340;5.980;2023-07-22T06:00:49;98309.25;;;19.71;66.96
64713;BME280;51140;45.340;5.980;2023-07-22T06:03:16;98314.75;;;19.83;66.83
64713;BME280;51140;45.340;5.980;2023-07-22T06:05:42;98319.56;;;20.24;67.42
64713;BME280;51140;45.340;5.980;2023-07-22T06:08:07;98323.81;;;20.42;64.69
64713;BME280;51140;45.340;5.980;2023-07-22T06:10:34;98322.75;;;20.64;63.42
64713;BME280;51140;45.340;5.980;2023-07-22T06:12:59;98334.59;;;19.70;66.55
64713;BME280;51140;45.340;5.980;2023-07-22T06:15:25;98331.03;;;20.13;65.52
64713;BME280;51140;45.340;5.980;2023-07-22T06:17:50;98341.09;;;20.79;65.29
64713;BME280;51140;45.340;5.980;2023-07-22T06:20:15;98338.19;;;20.55;63.91
64713;BME280;51140;45.340;5.980;2023-07-22T06:22:41;98335.94;;;20.66;62.95
64713;BME280;51140;45.340;5.980;2023-07-22T06:25:06;98338.97;;;20.93;63.40
64713;BME280;51140;45.340;5.980;2023-07-22T06:27:33;98342.91;;;20.96;65.11
64713;BME280;51140;45.340;5.980;2023-07-22T06:29:58;98344.34;;;20.93;63.36
64713;BME280;51140;45.340;5.980;2023-07-22T06:32:23;98340.09;;;20.63;61.58
64713;BME280;51140;45.340;5.980;2023-07-22T06:34:49;98343.09;;;20.62;63.02
64713;BME280;51140;45.340;5.980;2023-07-22T06:37:14;98349.69;;;20.73;63.15
64713;BME280;51140;45.340;5.980;2023-07-22T06:39:40;98349.47;;;20.86;63.38
64713;BME280;51140;45.340;5.980;2023-07-22T06:42:05;98341.44;;;20.40;60.98
64713;BME280;51140;45.340;5.980;2023-07-22T06:44:30;98352.50;;;20.85;60.07
64713;BME280;51140;45.340;5.980;2023-07-22T06:46:56;98347.31;;;21.00;59.54
64713;BME280;51140;45.340;5.980;2023-07-22T06:49:22;98348.97;;;20.93;61.30
64713;BME280;51140;45.340;5.980;2023-07-22T06:51:47;98349.38;;;20.74;62.55
64713;BME280;51140;45.340;5.980;2023-07-22T06:54:12;98341.47;;;20.98;60.58
64713;BME280;51140;45.340;5.980;2023-07-22T06:56:38;98341.97;;;20.92;58.66
64713;BME280;51140;45.340;5.980;2023-07-22T06:59:03;98343.72;;;20.96;60.73
64713;BME280;51140;45.340;5.980;2023-07-22T07:01:29;98336.91;;;20.90;59.97
64713;BME280;51140;45.340;5.980;2023-07-22T07:03:54;98338.00;;;20.89;60.70
64713;BME280;51140;45.340;5.980;2023-07-22T07:06:20;98335.47;;;20.26;62.42
64713;BME280;51140;45.340;5.980;2023-07-22T07:08:45;98332.78;;;20.09;63.65
64713;BME280;51140;45.340;5.980;2023-07-22T07:11:10;98330.41;;;20.07;63.76
64713;BME280;51140;45.340;5.980;2023-07-22T07:13:36;98330.75;;;19.97;64.96
64713;BME280;51140;45.340;5.980;2023-07-22T07:16:22;98332.59;;;20.31;61.45
64713;BME280;51140;45.340;5.980;2023-07-22T07:18:48;98327.63;;;20.41;60.97
64713;BME280;51140;45.340;5.980;2023-07-22T07:21:14;98327.13;;;20.48;59.93
64713;BME280;51140;45.340;5.980;2023-07-22T07:23:39;98326.50;;;20.51;59.87
64713;BME280;51140;45.340;5.980;2023-07-22T07:26:05;98336.06;;;20.69;61.10
64713;BME280;51140;45.340;5.980;2023-07-22T07:28:30;98331.72;;;20.85;59.54
64713;BME280;51140;45.340;5.980;2023-07-22T07:30:55;98333.72;;;20.97;59.67
64713;BME280;51140;45.340;5.980;2023-07-22T07:33:21;98334.13;;;21.07;60.19
64713;BME280;51140;45.340;5.980;2023-07-22T07:35:46;98321.53;;;21.20;59.58
64713;BME280;51140;45.340;5.980;2023-07-22T07:38:12;98312.69;;;21.32;59.24
64713;BME280;51140;45.340;5.980;2023-07-22T07:40:37;98322.16;;;21.38;57.77
64713;BME280;51140;45.340;5.980;2023-07-22T07:43:03;98317.81;;;21.45;58.02
64713;BME280;51140;45.340;5.980;2023-07-22T07:45:28;98326.72;;;21.46;56.85
64713;BME280;51140;45.340;5.980;2023-07-22T07:47:54;98323.59;;;21.35;57.48
64713;BME280;51140;45.340;5.980;2023-07-22T07:50:19;98313.47;;;21.53;57.37
64713;BME280;51140;45.340;5.980;2023-07-22T07:52:45;98324.53;;;21.60;56.49
64713;BME280;51140;45.340;5.980;2023-07-22T07:55:10;98326.69;;;21.66;55.83
64713;BME280;51140;45.340;5.980;2023-07-22T07:57:36;98327.84;;;21.78;55.44
64713;BME280;51140;45.340;5.980;2023-07-22T08:00:02;98313.72;;;22.26;55.73
64713;BME280;51140;45.340;5.980;2023-07-22T08:02:28;98314.84;;;22.61;54.51
64713;BME280;51140;45.340;5.980;2023-07-22T08:04:53;98319.81;;;22.47;53.94
64713;BME280;51140;45.340;5.980;2023-07-22T08:07:19;98308.88;;;22.43;54.66
64713;BME280;51140;45.340;5.980;2023-07-22T08:09:46;98310.13;;;22.46;55.21
64713;BME280;51140;45.340;5.980;2023-07-22T08:12:14;98316.69;;;22.69;54.85
64713;BME280;51140;45.340;5.980;2023-07-22T08:14:39;98355.50;;;22.73;52.39
64713;BME280;51140;45.340;5.980;2023-07-22T08:17:05;98327.28;;;22.86;52.43
64713;BME280;51140;45.340;5.980;2023-07-22T08:19:30;98307.44;;;22.82;53.50
64713;BME280;51140;45.340;5.980;2023-07-22T08:21:56;98287.88;;;23.13;53.81
64713;BME280;51140;45.340;5.980;2023-07-22T08:24:21;98339.22;;;23.21;52.70
64713;BME280;51140;45.340;5.980;2023-07-22T08:26:47;98347.69;;;23.08;52.04
64713;BME280;51140;45.340;5.980;2023-07-22T08:29:12;98374.84;;;23.23;50.35
64713;BME280;51140;45.340;5.980;2023-07-22T08:31:37;98391.09;;;23.23;49.38
64713;BME280;51140;45.340;5.980;2023-07-22T08:34:03;98341.41;;;23.83;50.49
64713;BME280;51140;45.340;5.980;2023-07-22T08:36:29;98337.66;;;23.88;50.22
64713;BME280;51140;45.340;5.980;2023-07-22T08:38:54;98326.00;;;24.15;51.34
64713;BME280;51140;45.340;5.980;2023-07-22T08:41:20;98419.81;;;24.16;47.90
64713;BME280;51140;45.340;5.980;2023-07-22T08:43:48;98398.88;;;23.89;47.78
64713;BME280;51140;45.340;5.980;2023-07-22T08:46:19;98345.69;;;23.57;49.51
64713;BME280;51140;45.340;5.980;2023-07-22T08:48:53;98348.91;;;24.02;49.31
64713;BME280;51140;45.340;5.980;2023-07-22T08:51:19;98396.78;;;24.10;48.20
64713;BME280;51140;45.340;5.980;2023-07-22T08:53:46;98277.28;;;24.34;51.05
64713;BME280;51140;45.340;5.980;2023-07-22T08:56:11;98395.47;;;24.79;47.83
64713;BME280;51140;45.340;5.980;2023-07-22T08:58:38;98423.16;;;25.00;46.79
64713;BME280;51140;45.340;5.980;2023-07-22T09:01:05;98397.09;;;25.30;46.72
64713;BME280;51140;45.340;5.980;2023-07-22T09:03:32;98362.41;;;25.58;48.30
64713;BME280;51140;45.340;5.980;2023-07-22T09:05:58;98461.19;;;25.82;45.07
64713;BME280;51140;45.340;5.980;2023-07-22T09:08:24;98446.66;;;25.74;45.26
64713;BME280;51140;45.340;5.980;2023-07-22T09:10:49;98384.22;;;26.00;46.64
64713;BME280;51140;45.340;5.980;2023-07-22T09:13:17;98402.66;;;25.88;46.23
64713;BME280;51140;45.340;5.980;2023-07-22T09:15:44;98250.19;;;25.81;49.83
64713;BME280;51140;45.340;5.980;2023-07-22T09:18:10;98415.81;;;26.24;45.08
64713;BME280;51140;45.340;5.980;2023-07-22T09:20:35;98443.72;;;26.59;44.36
64713;BME280;51140;45.340;5.980;2023-07-22T09:23:01;98473.16;;;26.54;43.59
64713;BME280;51140;45.340;5.980;2023-07-22T09:25:28;98422.88;;;26.29;44.89
64713;BME280;51140;45.340;5.980;2023-07-22T09:27:58;98492.00;;;26.05;42.68
64713;BME280;51140;45.340;5.980;2023-07-22T09:30:33;98477.91;;;25.65;43.35
64713;BME280;51140;45.340;5.980;2023-07-22T09:32:59;98430.25;;;25.71;44.41
64713;BME280;51140;45.340;5.980;2023-07-22T09:35:27;98471.94;;;26.51;42.33
64713;BME280;51140;45.340;5.980;2023-07-22T09:37:54;98472.78;;;26.55;44.16
64713;BME280;51140;45.340;5.980;2023-07-22T09:40:22;98473.81;;;26.89;43.21
64713;BME280;51140;45.340;5.980;2023-07-22T09:42:56;98441.03;;;26.82;42.48
64713;BME280;51140;45.340;5.980;2023-07-22T09:45:23;98524.38;;;26.87;41.72
64713;BME280;51140;45.340;5.980;2023-07-22T09:47:50;98691.03;;;26.92;36.74
64713;BME280;51140;45.340;5.980;2023-07-22T09:50:18;98654.97;;;26.99;37.91
64713;BME280;51140;45.340;5.980;2023-07-22T09:52:52;98630.13;;;27.23;38.60
64713;BME280;51140;45.340;5.980;2023-07-22T09:55:20;98610.63;;;26.09;39.03
64713;BME280;51140;45.340;5.980;2023-07-22T09:57:52;98516.00;;;26.19;40.94
64713;BME280;51140;45.340;5.980;2023-07-22T10:00:18;98560.78;;;26.05;40.07
64713;BME280;51140;45.340;5.980;2023-07-22T10:02:48;98589.94;;;26.59;38.80
64713;BME280;51140;45.340;5.980;2023-07-22T10:05:18;98696.78;;;26.87;35.30
64713;BME280;51140;45.340;5.980;2023-07-22T10:07:52;98561.69;;;27.28;39.63
64713;BME280;51140;45.340;5.980;2023-07-22T10:10:25;98794.31;;;27.16;33.85
64713;BME280;51140;45.340;5.980;2023-07-22T10:12:51;98650.28;;;27.60;37.56
64713;BME280;51140;45.340;5.980;2023-07-22T10:15:19;98657.31;;;28.07;36.88
64713;BME280;51140;45.340;5.980;2023-07-22T10:17:45;98864.81;;;27.72;31.15
64713;BME280;51140;45.340;5.980;2023-07-22T10:20:12;98842.53;;;28.08;31.28
64713;BME280;51140;45.340;5.980;2023-07-22T10:22:46;98835.22;;;28.58;32.21
64713;BME280;51140;45.340;5.980;2023-07-22T10:25:14;98829.59;;;28.47;33.11
64713;BME280;51140;45.340;5.980;2023-07-22T10:27:41;98923.66;;;28.08;30.41
64713;BME280;51140;45.340;5.980;2023-07-22T10:30:14;98775.31;;;28.68;33.54
64713;BME280;51140;45.340;5.980;2023-07-22T10:32:53;98862.06;;;28.75;32.87
64713;BME280;51140;45.340;5.980;2023-07-22T10:38:17;98874.13;;;28.97;32.19
64713;BME280;51140;45.340;5.980;2023-07-22T10:40:46;98986.63;;;28.37;28.90
64713;BME280;51140;45.340;5.980;2023-07-22T10:43:12;98929.41;;;28.22;30.37
64713;BME280;51140;45.340;5.980;2023-07-22T10:45:42;98945.53;;;28.95;29.26
64713;BME280;51140;45.340;5.980;2023-07-22T10:48:09;98966.88;;;28.86;28.87
64713;BME280;51140;45.340;5.980;2023-07-22T10:50:49;99015.56;;;28.61;27.36
64713;BME280;51140;45.340;5.980;2023-07-22T10:56:20;98955.44;;;29.03;28.81
64713;BME280;51140;45.340;5.980;2023-07-22T11:04:24;98954.81;;;29.66;29.17
64713;BME280;51140;45.340;5.980;2023-07-22T11:06:58;99027.41;;;29.56;27.41
64713;BME280;51140;45.340;5.980;2023-07-22T11:11:58;98947.53;;;29.47;28.47
64713;BME280;51140;45.340;5.980;2023-07-22T11:14:26;98945.84;;;29.65;28.97
64713;BME280;51140;45.340;5.980;2023-07-22T11:16:52;98937.88;;;29.53;30.25
64713;BME280;51140;45.340;5.980;2023-07-22T11:19:20;99006.25;;;29.53;26.98
64713;BME280;51140;45.340;5.980;2023-07-22T11:21:47;98955.56;;;29.63;28.18
64713;BME280;51140;45.340;5.980;2023-07-22T11:24:13;98925.00;;;29.57;28.77
64713;BME280;51140;45.340;5.980;2023-07-22T11:26:39;98967.22;;;29.30;27.84
64713;BME280;51140;45.340;5.980;2023-07-22T11:29:07;98985.56;;;29.29;26.75
64713;BME280;51140;45.340;5.980;2023-07-22T11:31:41;98992.25;;;28.45;27.21
64713;BME280;51140;45.340;5.980;2023-07-22T11:34:28;98930.97;;;28.87;29.18
64713;BME280;51140;45.340;5.980;2023-07-22T11:36:54;98926.41;;;27.54;29.17
64713;BME280;51140;45.340;5.980;2023-07-22T11:39:21;98891.97;;;28.22;29.45
64713;BME280;51140;45.340;5.980;2023-07-22T11:41:48;98893.63;;;28.95;28.31
64713;BME280;51140;45.340;5.980;2023-07-22T11:44:16;98863.19;;;27.67;29.84
64713;BME280;51140;45.340;5.980;2023-07-22T11:47:02;98800.88;;;27.69;31.11
64713;BME280;51140;45.340;5.980;2023-07-22T11:49:38;98822.84;;;27.76;30.36
64713;BME280;51140;45.340;5.980;2023-07-22T11:52:06;98830.03;;;27.65;29.76
64713;BME280;51140;45.340;5.980;2023-07-22T11:54:38;98875.38;;;27.54;28.97
64713;BME280;51140;45.340;5.980;2023-07-22T11:57:20;98736.00;;;28.50;32.47
64713;BME280;51140;45.340;5.980;2023-07-22T11:59:51;98776.16;;;29.28;29.41
64713;BME280;51140;45.340;5.980;2023-07-22T12:02:24;98783.13;;;29.22;30.49
64713;BME280;51140;45.340;5.980;2023-07-22T12:04:55;98835.88;;;29.00;28.45
64713;BME280;51140;45.340;5.980;2023-07-22T12:07:25;98733.63;;;29.71;32.01
64713;BME280;51140;45.340;5.980;2023-07-22T12:09:52;98737.59;;;29.77;32.94
64713;BME280;51140;45.340;5.980;2023-07-22T12:12:17;98811.81;;;30.05;29.22
64713;BME280;51140;45.340;5.980;2023-07-22T12:14:43;98741.38;;;29.99;31.26
64713;BME280;51140;45.340;5.980;2023-07-22T12:17:09;98714.44;;;30.08;31.36
64713;BME280;51140;45.340;5.980;2023-07-22T12:19:35;98740.38;;;30.21;31.71
64713;BME280;51140;45.340;5.980;2023-07-22T12:22:00;98763.59;;;29.90;31.03
64713;BME280;51140;45.340;5.980;2023-07-22T12:24:30;98834.31;;;29.88;28.20
64713;BME280;51140;45.340;5.980;2023-07-22T12:26:55;98729.09;;;29.82;32.70
64713;BME280;51140;45.340;5.980;2023-07-22T12:29:20;98738.75;;;30.17;29.72
64713;BME280;51140;45.340;5.980;2023-07-22T12:31:47;98803.91;;;29.93;29.38
64713;BME280;51140;45.340;5.980;2023-07-22T12:34:12;98813.06;;;30.12;28.56
64713;BME280;51140;45.340;5.980;2023-07-22T12:36:38;98867.66;;;29.97;28.05
64713;BME280;51140;45.340;5.980;2023-07-22T12:39:03;98833.59;;;29.02;28.66
64713;BME280;51140;45.340;5.980;2023-07-22T12:41:30;98758.13;;;29.24;30.12
64713;BME280;51140;45.340;5.980;2023-07-22T12:43:55;98783.78;;;29.79;29.45
64713;BME280;51140;45.340;5.980;2023-07-22T12:46:20;98768.28;;;29.23;31.33
64713;BME280;51140;45.340;5.980;2023-07-22T12:48:46;98809.34;;;29.27;28.51
64713;BME280;51140;45.340;5.980;2023-07-22T12:51:11;98792.59;;;29.32;28.72
64713;BME280;51140;45.340;5.980;2023-07-22T12:53:38;98766.00;;;29.62;29.33
64713;BME280;51140;45.340;5.980;2023-07-22T12:56:03;98777.69;;;29.92;28.37
64713;BME280;51140;45.340;5.980;2023-07-22T12:58:30;98743.25;;;29.91;31.32
64713;BME280;51140;45.340;5.980;2023-07-22T13:00:55;98799.88;;;29.50;28.51
64713;BME280;51140;45.340;5.980;2023-07-22T13:03:21;98780.22;;;29.41;29.51
64713;BME280;51140;45.340;5.980;2023-07-22T13:05:46;98731.19;;;29.63;30.63
64713;BME280;51140;45.340;5.980;2023-07-22T13:08:12;98692.28;;;29.80;31.31
64713;BME280;51140;45.340;5.980;2023-07-22T13:10:37;98677.72;;;30.13;30.73